createdAt,value
2023-06-23T00:00:48.056Z,51.051605
2023-06-23T00:01:48.153Z,51.051601
2023-06-23T00:02:48.124Z,51.051636
2023-06-23T00:03:48.101Z,51.051682
2023-06-23T00:04:48.031Z,51.051609
2023-06-23T00:05:48.038Z,51.051575
2023-06-23T00:06:48.227Z,51.051605
2023-06-23T00:07:48.011Z,51.051582
2023-06-23T00:08:48.008Z,51.051586
2023-06-23T00:09:47.990Z,51.051594
2023-06-23T00:10:48.010Z,51.051670
2023-06-23T00:11:47.981Z,51.051716
2023-06-23T00:12:47.973Z,51.051678
2023-06-23T00:13:47.962Z,51.051685
2023-06-23T00:14:47.984Z,51.051624
2023-06-23T00:15:48.211Z,51.051590
2023-06-23T00:16:47.964Z,51.051567
2023-06-23T00:17:48.067Z,51.051632
2023-06-23T00:18:47.933Z,51.051662
2023-06-23T00:19:48.323Z,51.051678
2023-06-23T00:20:47.934Z,51.051670
2023-06-23T00:21:48.148Z,51.051655
2023-06-23T00:22:47.914Z,51.051659
2023-06-23T00:23:47.899Z,51.051720
2023-06-23T00:24:47.899Z,51.051720
2023-06-23T00:25:47.901Z,51.051716
2023-06-23T00:26:47.873Z,51.051651
2023-06-23T00:27:47.865Z,51.051624
2023-06-23T00:28:47.867Z,51.051666
2023-06-23T00:29:47.867Z,51.051678
2023-06-23T00:30:47.869Z,51.051651
2023-06-23T00:31:47.863Z,51.051636
2023-06-23T00:32:47.865Z,51.051643
2023-06-23T00:33:47.826Z,51.051617
2023-06-23T00:34:47.856Z,51.051594
2023-06-23T00:35:47.822Z,51.051620
2023-06-23T00:36:47.801Z,51.051624
2023-06-23T00:37:47.798Z,51.051605
2023-06-23T00:38:47.812Z,51.051628
2023-06-23T00:39:47.793Z,51.051624
2023-06-23T00:40:47.788Z,51.051632
2023-06-23T00:41:47.778Z,51.051662
2023-06-23T00:42:47.818Z,51.051682
2023-06-23T00:43:47.776Z,51.051666
2023-06-23T00:44:47.751Z,51.051628
2023-06-23T00:45:47.747Z,51.051640
2023-06-23T00:46:47.744Z,51.051674
2023-06-23T00:47:47.765Z,51.051655
2023-06-23T00:48:47.721Z,51.051666
2023-06-23T00:49:47.716Z,51.051689
2023-06-23T00:50:47.718Z,51.051655
2023-06-23T00:51:47.709Z,51.051655
2023-06-23T00:52:47.721Z,51.051643
2023-06-23T00:53:47.699Z,51.051617
2023-06-23T00:54:47.724Z,51.051636
2023-06-23T00:55:47.678Z,51.051620
2023-06-23T00:56:47.676Z,51.051613
2023-06-23T00:57:47.674Z,51.051624
2023-06-23T00:58:47.676Z,51.051632
2023-06-23T00:59:47.660Z,51.051624
2023-06-23T01:00:47.639Z,51.051628
2023-06-23T01:01:47.652Z,51.051613
2023-06-23T01:02:47.724Z,51.051620
2023-06-23T01:03:47.760Z,51.051601
2023-06-23T01:04:47.618Z,51.051620
2023-06-23T01:05:47.626Z,51.051613
2023-06-23T01:06:47.600Z,51.051601
2023-06-23T01:07:47.594Z,51.051624
2023-06-23T01:08:47.614Z,51.051632
2023-06-23T01:09:47.583Z,51.051628
2023-06-23T01:10:47.595Z,51.051643
2023-06-23T01:11:47.587Z,51.051628
2023-06-23T01:12:47.569Z,51.051628
2023-06-23T01:13:47.549Z,51.051613
2023-06-23T01:14:47.556Z,51.051620
2023-06-23T01:15:47.560Z,51.051643
2023-06-23T01:16:47.532Z,51.051640
2023-06-23T01:17:47.548Z,51.051647
2023-06-23T01:18:47.528Z,51.051598
2023-06-23T01:19:47.521Z,51.051590
2023-06-23T01:20:47.523Z,51.051659
2023-06-23T01:21:47.496Z,51.051620
2023-06-23T01:22:47.506Z,51.051624
2023-06-23T01:23:47.485Z,51.051632
2023-06-23T01:24:47.502Z,51.051617
2023-06-23T01:25:47.497Z,51.051613
2023-06-23T01:26:47.462Z,51.051605
2023-06-23T01:27:47.454Z,51.051620
2023-06-23T01:28:47.454Z,51.051689
2023-06-23T01:29:47.465Z,51.051666
2023-06-23T01:30:47.438Z,51.051632
2023-06-23T01:31:47.517Z,51.051617
2023-06-23T01:32:47.503Z,51.051636
2023-06-23T01:33:47.417Z,51.051685
2023-06-23T01:34:47.497Z,51.051655
2023-06-23T01:35:47.412Z,51.051655
2023-06-23T01:36:47.386Z,51.051628
2023-06-23T01:37:47.426Z,51.051666
2023-06-23T01:38:47.414Z,51.051586
2023-06-23T01:39:47.402Z,51.051632
2023-06-23T01:40:47.366Z,51.051647
2023-06-23T01:41:47.357Z,51.051636
2023-06-23T01:42:47.378Z,51.051662
2023-06-23T01:43:47.366Z,51.051643
2023-06-23T01:44:47.340Z,51.051666
2023-06-23T01:45:47.327Z,51.051643
2023-06-23T01:46:47.352Z,51.051617
2023-06-23T01:47:47.372Z,51.051678
2023-06-23T01:48:47.342Z,51.051651
2023-06-23T01:49:47.307Z,51.051674
2023-06-23T01:50:47.305Z,51.051689
2023-06-23T01:51:47.286Z,51.051640
2023-06-23T01:52:47.305Z,51.051674
2023-06-23T01:53:47.291Z,51.051666
2023-06-23T01:54:47.267Z,51.051651
2023-06-23T01:55:47.314Z,51.051682
2023-06-23T01:56:47.260Z,51.051693
2023-06-23T01:57:47.276Z,51.051682
2023-06-23T01:58:47.250Z,51.051647
2023-06-23T01:59:47.237Z,51.051678
2023-06-23T02:00:47.231Z,51.051670
2023-06-23T02:01:47.258Z,51.051697
2023-06-23T02:02:47.351Z,51.051640
2023-06-23T02:03:47.327Z,51.051670
2023-06-23T02:04:47.287Z,51.051662
2023-06-23T02:05:47.204Z,51.051651
2023-06-23T02:06:47.236Z,51.051678
2023-06-23T02:07:47.214Z,51.051685
2023-06-23T02:08:47.172Z,51.051670
2023-06-23T02:09:47.192Z,51.051682
2023-06-23T02:10:47.163Z,51.051674
2023-06-23T02:11:47.166Z,51.051662
2023-06-23T02:12:47.155Z,51.051655
2023-06-23T02:13:47.148Z,51.051662
2023-06-23T02:14:47.140Z,51.051651
2023-06-23T02:15:47.127Z,51.051640
2023-06-23T02:16:47.157Z,51.051647
2023-06-23T02:17:47.156Z,51.051674
2023-06-23T02:18:47.114Z,51.051659
2023-06-23T02:19:47.110Z,51.051685
2023-06-23T02:20:47.119Z,51.051659
2023-06-23T02:21:47.103Z,51.051666
2023-06-23T02:22:47.082Z,51.051651
2023-06-23T02:23:47.073Z,51.051662
2023-06-23T02:24:47.069Z,51.051666
2023-06-23T02:25:47.077Z,51.051697
2023-06-23T02:26:47.049Z,51.051704
2023-06-23T02:27:47.051Z,51.051697
2023-06-23T02:28:47.036Z,51.051689
2023-06-23T02:29:47.035Z,51.051670
2023-06-23T02:30:47.072Z,51.051689
2023-06-23T02:31:47.142Z,51.051689
2023-06-23T02:32:47.208Z,51.051712
2023-06-23T02:33:47.161Z,51.051701
2023-06-23T02:34:47.027Z,51.051731
2023-06-23T02:35:46.991Z,51.051689
2023-06-23T02:36:46.995Z,51.051716
2023-06-23T02:37:46.973Z,51.051720
2023-06-23T02:38:46.984Z,51.051697
2023-06-23T02:39:46.993Z,51.051704
2023-06-23T02:40:46.952Z,51.051708
2023-06-23T02:41:46.948Z,51.051662
2023-06-23T02:42:46.940Z,51.051620
2023-06-23T02:43:46.930Z,51.051678
2023-06-23T02:44:46.942Z,51.051678
2023-06-23T02:45:46.932Z,51.051640
2023-06-23T02:46:46.918Z,51.051670
2023-06-23T02:47:46.939Z,51.051674
2023-06-23T02:48:47.125Z,51.051701
2023-06-23T02:49:46.909Z,51.051697
2023-06-23T02:50:46.881Z,51.051693
2023-06-23T02:51:46.892Z,51.051666
2023-06-23T02:52:46.872Z,51.051685
2023-06-23T02:53:46.890Z,51.051697
2023-06-23T02:54:46.856Z,51.051693
2023-06-23T02:55:46.863Z,51.051678
2023-06-23T02:56:46.855Z,51.051701
2023-06-23T02:57:46.835Z,51.051685
2023-06-23T02:58:46.843Z,51.051708
2023-06-23T02:59:46.828Z,51.051689
2023-06-23T03:00:46.973Z,51.051678
2023-06-23T03:01:46.809Z,51.051666
2023-06-23T03:02:46.937Z,51.051678
2023-06-23T03:03:46.867Z,51.051678
2023-06-23T03:04:46.793Z,51.051674
2023-06-23T03:05:46.768Z,51.051678
2023-06-23T03:06:46.770Z,51.051689
2023-06-23T03:07:46.788Z,51.051670
2023-06-23T03:08:46.765Z,51.051678
2023-06-23T03:09:46.774Z,51.051666
2023-06-23T03:10:46.747Z,51.051670
2023-06-23T03:11:46.739Z,51.051678
2023-06-23T03:12:46.742Z,51.051708
2023-06-23T03:13:46.719Z,51.051659
2023-06-23T03:14:46.714Z,51.051624
2023-06-23T03:15:46.708Z,51.051659
2023-06-23T03:16:46.736Z,51.051636
2023-06-23T03:17:46.775Z,51.051640
2023-06-23T03:18:46.686Z,51.051647
2023-06-23T03:19:46.691Z,51.051655
2023-06-23T03:20:46.679Z,51.051632
2023-06-23T03:21:46.692Z,51.051632
2023-06-23T03:22:46.658Z,51.051651
2023-06-23T03:23:46.657Z,51.051682
2023-06-23T03:24:46.655Z,51.051682
2023-06-23T03:25:46.629Z,51.051674
2023-06-23T03:26:46.664Z,51.051659
2023-06-23T03:27:46.696Z,51.051655
2023-06-23T03:28:46.618Z,51.051659
2023-06-23T03:29:46.658Z,51.051632
2023-06-23T03:30:46.793Z,51.051659
2023-06-23T03:31:47.612Z,51.051651
2023-06-23T03:32:46.621Z,51.051651
2023-06-23T03:33:46.579Z,51.051640
2023-06-23T03:34:46.588Z,51.051685
2023-06-23T03:35:46.589Z,51.051640
2023-06-23T03:36:46.556Z,51.051636
2023-06-23T03:37:46.569Z,51.051651
2023-06-23T03:38:46.554Z,51.051655
2023-06-23T03:39:46.556Z,51.051647
2023-06-23T03:40:46.558Z,51.051670
2023-06-23T03:41:46.528Z,51.051682
2023-06-23T03:42:46.524Z,51.051682
2023-06-23T03:43:46.516Z,51.051678
2023-06-23T03:44:46.533Z,51.051682
2023-06-23T03:45:46.515Z,51.051682
2023-06-23T03:46:46.650Z,51.051670
2023-06-23T03:47:46.555Z,51.051701
2023-06-23T03:48:46.486Z,51.051662
2023-06-23T03:49:46.493Z,51.051682
2023-06-23T03:50:46.469Z,51.051670
2023-06-23T03:51:46.455Z,51.051697
2023-06-23T03:52:46.456Z,51.051689
2023-06-23T03:53:46.448Z,51.051701
2023-06-23T03:54:46.483Z,51.051670
2023-06-23T03:55:46.430Z,51.051659
2023-06-23T03:56:46.416Z,51.051666
2023-06-23T03:57:46.412Z,51.051632
2023-06-23T03:58:46.436Z,51.051640
2023-06-23T03:59:46.432Z,51.051666
2023-06-23T04:00:46.390Z,51.051693
2023-06-23T04:01:46.461Z,51.051647
2023-06-23T04:02:46.405Z,51.051662
2023-06-23T04:03:46.421Z,51.051647
2023-06-23T04:04:46.369Z,51.051609
2023-06-23T04:05:46.374Z,51.051579
2023-06-23T04:06:46.364Z,51.051594
2023-06-23T04:07:46.361Z,51.051701
2023-06-23T04:08:46.362Z,51.051689
2023-06-23T04:09:46.348Z,51.051704
2023-06-23T04:10:46.328Z,51.051750
2023-06-23T04:11:46.309Z,51.051693
2023-06-23T04:12:46.309Z,51.051662
2023-06-23T04:13:46.318Z,51.051685
2023-06-23T04:14:46.298Z,51.051651
2023-06-23T04:15:46.285Z,51.051674
2023-06-23T04:16:46.278Z,51.051682
2023-06-23T04:17:46.304Z,51.051647
2023-06-23T04:18:46.276Z,51.051697
2023-06-23T04:19:46.252Z,51.051697
2023-06-23T04:20:46.251Z,51.051640
2023-06-23T04:21:46.260Z,51.051689
2023-06-23T04:22:46.264Z,51.051697
2023-06-23T04:23:46.227Z,51.051701
2023-06-23T04:24:46.218Z,51.051689
2023-06-23T04:25:46.265Z,51.051689
2023-06-23T04:26:46.222Z,51.051689
2023-06-23T04:27:46.199Z,51.051682
2023-06-23T04:28:46.197Z,51.051655
2023-06-23T04:29:46.182Z,51.051754
2023-06-23T04:30:47.205Z,51.051704
2023-06-23T04:31:46.213Z,51.051723
2023-06-23T04:32:46.176Z,51.051720
2023-06-23T04:33:46.166Z,51.051765
2023-06-23T04:34:46.147Z,51.051754
2023-06-23T04:35:46.256Z,51.051754
2023-06-23T04:36:46.152Z,51.051754
2023-06-23T04:37:46.185Z,51.051704
2023-06-23T04:38:46.131Z,51.051708
2023-06-23T04:39:46.117Z,51.051685
2023-06-23T04:40:46.136Z,51.051682
2023-06-23T04:41:46.138Z,51.051723
2023-06-23T04:42:46.094Z,51.051735
2023-06-23T04:43:46.110Z,51.051689
2023-06-23T04:44:46.098Z,51.051758
2023-06-23T04:45:46.138Z,51.051697
2023-06-23T04:46:46.059Z,51.051716
2023-06-23T04:47:46.094Z,51.051735
2023-06-23T04:48:46.065Z,51.051731
2023-06-23T04:49:46.059Z,51.051746
2023-06-23T04:50:46.043Z,51.051720
2023-06-23T04:51:46.061Z,51.051670
2023-06-23T04:52:46.023Z,51.051693
2023-06-23T04:53:46.013Z,51.051746
2023-06-23T04:54:46.030Z,51.051720
2023-06-23T04:55:46.017Z,51.051750
2023-06-23T04:56:45.991Z,51.051712
2023-06-23T04:57:45.982Z,51.051765
2023-06-23T04:58:45.979Z,51.051659
2023-06-23T04:59:45.973Z,51.051682
2023-06-23T05:00:45.987Z,51.051735
2023-06-23T05:01:46.122Z,51.051727
2023-06-23T05:02:46.085Z,51.051739
2023-06-23T05:03:46.062Z,51.051685
2023-06-23T05:04:45.943Z,51.051678
2023-06-23T05:05:45.941Z,51.051670
2023-06-23T05:06:45.926Z,51.051678
2023-06-23T05:07:45.933Z,51.051754
2023-06-23T05:08:45.951Z,51.051735
2023-06-23T05:09:45.916Z,51.051674
2023-06-23T05:10:45.907Z,51.051685
2023-06-23T05:11:45.908Z,51.051769
2023-06-23T05:12:45.904Z,51.051659
2023-06-23T05:13:46.031Z,51.051632
2023-06-23T05:14:45.887Z,51.051704
2023-06-23T05:15:47.533Z,51.051716
2023-06-23T05:16:45.876Z,51.051685
2023-06-23T05:17:45.973Z,51.051735
2023-06-23T05:18:45.848Z,51.051697
2023-06-23T05:19:45.852Z,51.051689
2023-06-23T05:20:45.834Z,51.051743
2023-06-23T05:21:45.828Z,51.051735
2023-06-23T05:22:45.834Z,51.051773
2023-06-23T05:23:52.848Z,51.051720
2023-06-23T05:24:47.793Z,51.051693
2023-06-23T05:25:45.788Z,51.051685
2023-06-23T05:26:45.807Z,51.051689
2023-06-23T05:27:45.812Z,51.051693
2023-06-23T05:28:45.770Z,51.051655
2023-06-23T05:29:46.783Z,51.051678
2023-06-23T05:30:45.791Z,51.051697
2023-06-23T05:31:45.999Z,51.051720
2023-06-23T05:32:45.942Z,51.051643
2023-06-23T05:33:45.761Z,51.051666
2023-06-23T05:34:45.738Z,51.051651
2023-06-23T05:35:47.984Z,51.051640
2023-06-23T05:36:46.733Z,51.051640
2023-06-23T05:37:45.710Z,51.051647
2023-06-23T05:38:45.694Z,51.051620
2023-06-23T05:39:45.689Z,51.051613
2023-06-23T05:40:45.726Z,51.051613
2023-06-23T05:41:45.723Z,51.051609
2023-06-23T05:42:45.695Z,51.051620
2023-06-23T05:43:45.673Z,51.051640
2023-06-23T05:44:45.667Z,51.051605
2023-06-23T05:45:45.674Z,51.051594
2023-06-23T05:46:45.694Z,51.051624
2023-06-23T05:47:45.712Z,51.051651
2023-06-23T05:48:45.680Z,51.051590
2023-06-23T05:49:48.089Z,51.051632
2023-06-23T05:50:46.624Z,51.051613
2023-06-23T05:51:45.619Z,51.051643
2023-06-23T05:52:45.596Z,51.051609
2023-06-23T05:53:45.586Z,51.051624
2023-06-23T05:54:45.583Z,51.051647
2023-06-23T05:55:45.603Z,51.051613
2023-06-23T05:56:45.569Z,51.051636
2023-06-23T05:57:45.555Z,51.051617
2023-06-23T05:58:45.738Z,51.051620
2023-06-23T05:59:45.574Z,51.051605
2023-06-23T06:00:45.648Z,51.051628
2023-06-23T06:01:45.537Z,51.051624
2023-06-23T06:02:45.675Z,51.051617
2023-06-23T06:03:45.604Z,51.051613
2023-06-23T06:04:45.518Z,51.051613
2023-06-23T06:05:45.507Z,51.051628
2023-06-23T06:06:45.538Z,51.051643
2023-06-23T06:07:45.490Z,51.051613
2023-06-23T06:08:45.502Z,51.051617
2023-06-23T06:09:45.481Z,51.051624
2023-06-23T06:10:45.470Z,51.051628
2023-06-23T06:11:45.482Z,51.051655
2023-06-23T06:12:45.463Z,51.051655
2023-06-23T06:13:45.457Z,51.051643
2023-06-23T06:14:45.451Z,51.051605
2023-06-23T06:15:45.535Z,51.051666
2023-06-23T06:16:45.446Z,51.051613
2023-06-23T06:17:45.498Z,51.051624
2023-06-23T06:18:46.245Z,51.051605
2023-06-23T06:19:45.415Z,51.051624
2023-06-23T06:20:45.413Z,51.051620
2023-06-23T06:21:45.412Z,51.051662
2023-06-23T06:22:45.412Z,51.051624
2023-06-23T06:23:45.407Z,51.051609
2023-06-23T06:24:45.378Z,51.051632
2023-06-23T06:25:45.885Z,51.051662
2023-06-23T06:26:46.355Z,51.051643
2023-06-23T06:27:45.414Z,51.051655
2023-06-23T06:28:45.416Z,51.051666
2023-06-23T06:29:45.344Z,51.051624
2023-06-23T06:30:45.418Z,51.051632
2023-06-23T06:31:45.319Z,51.051628
2023-06-23T06:32:45.431Z,51.051620
2023-06-23T06:33:45.332Z,51.051655
2023-06-23T06:34:45.303Z,51.051647
2023-06-23T06:35:45.304Z,51.051613
2023-06-23T06:36:45.622Z,51.051647
2023-06-23T06:37:45.287Z,51.051643
2023-06-23T06:38:45.274Z,51.051609
2023-06-23T06:39:45.269Z,51.051582
2023-06-23T06:40:45.267Z,51.051582
2023-06-23T06:41:45.264Z,51.051617
2023-06-23T06:42:45.276Z,51.051617
2023-06-23T06:43:45.258Z,51.051624
2023-06-23T06:44:45.232Z,51.051613
2023-06-23T06:45:45.251Z,51.051605
2023-06-23T06:46:45.229Z,51.051620
2023-06-23T06:47:45.227Z,51.051666
2023-06-23T06:48:45.209Z,51.051659
2023-06-23T06:49:45.192Z,51.051640
2023-06-23T06:50:45.207Z,51.051651
2023-06-23T06:51:45.202Z,51.051613
2023-06-23T06:52:46.140Z,51.051643
2023-06-23T06:53:46.175Z,51.051659
2023-06-23T06:54:45.176Z,51.051659
2023-06-23T06:55:45.167Z,51.051659
2023-06-23T06:56:45.138Z,51.051628
2023-06-23T06:57:45.128Z,51.051666
2023-06-23T06:58:45.230Z,51.051620
2023-06-23T06:59:45.133Z,51.051605
2023-06-23T07:00:45.130Z,51.051662
2023-06-23T07:01:45.162Z,51.051682
2023-06-23T07:02:45.169Z,51.051609
2023-06-23T07:03:45.204Z,51.051632
2023-06-23T07:04:45.107Z,51.051647
2023-06-23T07:05:45.108Z,51.051647
2023-06-23T07:06:45.075Z,51.051605
2023-06-23T07:07:45.080Z,51.051647
2023-06-23T07:08:45.073Z,51.051666
2023-06-23T07:09:45.073Z,51.051613
2023-06-23T07:10:45.047Z,51.051647
2023-06-23T07:11:45.037Z,51.051617
2023-06-23T07:12:45.027Z,51.051563
2023-06-23T07:13:45.051Z,51.051590
2023-06-23T07:14:45.075Z,51.051598
2023-06-23T07:15:45.063Z,51.051590
2023-06-23T07:16:45.004Z,51.051624
2023-06-23T07:17:45.028Z,51.051620
2023-06-23T07:18:44.996Z,51.051598
2023-06-23T07:19:44.977Z,51.051601
2023-06-23T07:20:44.974Z,51.051628
2023-06-23T07:21:44.964Z,51.051640
2023-06-23T07:22:44.956Z,51.051605
2023-06-23T07:23:44.996Z,51.051613
2023-06-23T07:24:44.951Z,51.051620
2023-06-23T07:25:44.949Z,51.051598
2023-06-23T07:26:44.935Z,51.051617
2023-06-23T07:27:44.949Z,51.051636
2023-06-23T07:28:44.989Z,51.051628
2023-06-23T07:29:44.922Z,51.051632
2023-06-23T07:30:44.975Z,51.051659
2023-06-23T07:31:44.971Z,51.051624
2023-06-23T07:32:44.968Z,51.051662
2023-06-23T07:33:44.888Z,51.051647
2023-06-23T07:34:44.891Z,51.051655
2023-06-23T07:35:44.860Z,51.051636
2023-06-23T07:36:45.864Z,51.051640
2023-06-23T07:37:44.875Z,51.051651
2023-06-23T07:38:44.843Z,51.051640
2023-06-23T07:39:44.839Z,51.051613
2023-06-23T07:40:44.848Z,51.051647
2023-06-23T07:41:44.846Z,51.051659
2023-06-23T07:42:44.839Z,51.051647
2023-06-23T07:43:44.818Z,51.051651
2023-06-23T07:44:44.815Z,51.051659
2023-06-23T07:45:44.869Z,51.051651
2023-06-23T07:46:44.937Z,51.051651
2023-06-23T07:47:44.802Z,51.051655
2023-06-23T07:48:44.777Z,51.051655
2023-06-23T07:49:44.781Z,51.051647
2023-06-23T07:50:44.787Z,51.051640
2023-06-23T07:51:44.775Z,51.051659
2023-06-23T07:52:44.757Z,51.051632
2023-06-23T07:53:58.394Z,51.051647
2023-06-23T07:54:46.755Z,51.051655
2023-06-23T07:55:44.745Z,51.051647
2023-06-23T07:56:44.748Z,51.051659
2023-06-23T07:57:44.714Z,51.051643
2023-06-23T07:58:44.698Z,51.051682
2023-06-23T07:59:44.711Z,51.051662
2023-06-23T08:00:44.715Z,51.051685
2023-06-23T08:01:44.691Z,51.051647
2023-06-23T08:02:44.844Z,51.051655
2023-06-23T08:03:44.787Z,51.051674
2023-06-23T08:04:44.708Z,51.051666
2023-06-23T08:05:44.685Z,51.051636
2023-06-23T08:06:44.647Z,51.051647
2023-06-23T08:07:44.648Z,51.051659
2023-06-23T08:08:44.664Z,51.051693
2023-06-23T08:09:44.642Z,51.051678
2023-06-23T08:10:44.660Z,51.051693
2023-06-23T08:11:44.626Z,51.051636
2023-06-23T08:12:44.639Z,51.051647
2023-06-23T08:13:44.629Z,51.051628
2023-06-23T08:14:45.634Z,51.051651
2023-06-23T08:15:44.602Z,51.051647
2023-06-23T08:16:44.651Z,51.051662
2023-06-23T08:17:44.589Z,51.051662
2023-06-23T08:18:44.562Z,51.051643
2023-06-23T08:19:44.584Z,51.051628
2023-06-23T08:20:44.600Z,51.051636
2023-06-23T08:21:44.555Z,51.051624
2023-06-23T08:22:44.546Z,51.051659
2023-06-23T08:23:44.557Z,51.051662
2023-06-23T08:24:44.546Z,51.051643
2023-06-23T08:25:44.514Z,51.051647
2023-06-23T08:26:44.510Z,51.051632
2023-06-23T08:27:44.498Z,51.051624
2023-06-23T08:28:44.568Z,51.051678
2023-06-23T08:29:44.491Z,51.051670
2023-06-23T08:30:44.499Z,51.051659
2023-06-23T08:31:44.654Z,51.051659
2023-06-23T08:32:44.503Z,51.051643
2023-06-23T08:33:44.483Z,51.051624
2023-06-23T08:34:44.489Z,51.051647
2023-06-23T08:35:44.480Z,51.051651
2023-06-23T08:36:44.440Z,51.051636
2023-06-23T08:37:44.432Z,51.051643
2023-06-23T08:38:44.449Z,51.051678
2023-06-23T08:39:44.411Z,51.051651
2023-06-23T08:40:44.416Z,51.051636
2023-06-23T08:41:44.405Z,51.051666
2023-06-23T08:42:44.424Z,51.051712
2023-06-23T08:43:44.419Z,51.051697
2023-06-23T08:44:44.386Z,51.051674
2023-06-23T08:45:44.378Z,51.051674
2023-06-23T08:47:04.204Z,51.051662
2023-06-23T08:47:46.456Z,51.051685
2023-06-23T08:48:44.379Z,51.051689
2023-06-23T08:49:44.357Z,51.051697
2023-06-23T08:50:44.334Z,51.051682
2023-06-23T08:51:44.323Z,51.051640
2023-06-23T08:52:44.472Z,51.051685
2023-06-23T08:53:44.321Z,51.051659
2023-06-23T08:54:44.321Z,51.051674
2023-06-23T08:55:44.457Z,51.051647
2023-06-23T08:56:44.310Z,51.051659
2023-06-23T08:57:44.305Z,51.051704
2023-06-23T08:58:44.433Z,51.051697
2023-06-23T08:59:44.279Z,51.051655
2023-06-23T09:00:44.273Z,51.051697
2023-06-23T09:01:44.299Z,51.051701
2023-06-23T09:02:44.362Z,51.051655
2023-06-23T09:03:44.311Z,51.051659
2023-06-23T09:04:44.239Z,51.051666
2023-06-23T09:05:45.107Z,51.051685
2023-06-23T09:06:44.308Z,51.051689
2023-06-23T09:07:44.258Z,51.051682
2023-06-23T09:08:44.210Z,51.051716
2023-06-23T09:09:44.199Z,51.051701
2023-06-23T09:10:44.222Z,51.051731
2023-06-23T09:11:44.218Z,51.051701
2023-06-23T09:12:44.175Z,51.051708
2023-06-23T09:13:44.192Z,51.051636
2023-06-23T09:14:44.171Z,51.051662
2023-06-23T09:16:00.009Z,51.051636
2023-06-23T09:16:46.150Z,51.051670
2023-06-23T09:17:44.218Z,51.051666
2023-06-23T09:18:44.146Z,51.051674
2023-06-23T09:19:44.151Z,51.051659
2023-06-23T09:20:46.337Z,51.051662
2023-06-23T09:21:44.316Z,51.051640
2023-06-23T09:22:45.174Z,51.051636
2023-06-23T09:23:44.102Z,51.051636
2023-06-23T09:24:44.125Z,51.051636
2023-06-23T09:25:44.085Z,51.051636
2023-06-23T09:26:44.088Z,51.051655
2023-06-23T09:27:44.088Z,51.051640
2023-06-23T09:28:44.067Z,51.051643
2023-06-23T09:29:44.092Z,51.051674
2023-06-23T09:30:44.077Z,51.051613
2023-06-23T09:31:44.075Z,51.051670
2023-06-23T09:32:44.095Z,51.051651
2023-06-23T09:33:44.053Z,51.051640
2023-06-23T09:34:44.057Z,51.051628
2023-06-23T09:35:44.019Z,51.051636
2023-06-23T09:36:44.013Z,51.051640
2023-06-23T09:37:44.006Z,51.051678
2023-06-23T09:38:44.026Z,51.051613
2023-06-23T09:39:43.996Z,51.051674
2023-06-23T09:40:43.989Z,51.051662
2023-06-23T09:41:52.090Z,51.051674
2023-06-23T09:42:45.974Z,51.051636
2023-06-23T09:43:43.978Z,51.051643
2023-06-23T09:44:44.007Z,51.051674
2023-06-23T09:45:43.957Z,51.051666
2023-06-23T09:46:43.954Z,51.051659
2023-06-23T09:47:44.020Z,51.051655
2023-06-23T09:48:43.977Z,51.051674
2023-06-23T09:49:43.946Z,51.051662
2023-06-23T09:50:43.924Z,51.051640
2023-06-23T09:51:43.949Z,51.051651
2023-06-23T09:52:43.935Z,51.051666
2023-06-23T09:53:43.899Z,51.051708
2023-06-23T09:54:43.918Z,51.051727
2023-06-23T09:55:43.885Z,51.051651
2023-06-23T09:56:43.878Z,51.051678
2023-06-23T09:57:43.889Z,51.051689
2023-06-23T09:58:43.861Z,51.051701
2023-06-23T09:59:43.862Z,51.051697
2023-06-23T10:00:43.854Z,51.051636
2023-06-23T10:01:43.928Z,51.051685
2023-06-23T10:02:43.893Z,51.051720
2023-06-23T10:03:44.014Z,51.051735
2023-06-23T10:04:43.826Z,51.051701
2023-06-23T10:05:43.808Z,51.051701
2023-06-23T10:06:43.859Z,51.051704
2023-06-23T10:07:43.795Z,51.051685
2023-06-23T10:08:43.795Z,51.051666
2023-06-23T10:09:43.791Z,51.051655
2023-06-23T10:10:43.770Z,51.051693
2023-06-23T10:11:43.792Z,51.051685
2023-06-23T10:12:43.761Z,51.051662
2023-06-23T10:13:43.764Z,51.051693
2023-06-23T10:14:43.762Z,51.051674
2023-06-23T10:16:15.667Z,51.051685
2023-06-23T10:16:43.729Z,51.051647
2023-06-23T10:17:43.837Z,51.051659
2023-06-23T10:18:43.737Z,51.051704
2023-06-23T10:19:43.712Z,51.051689
2023-06-23T10:20:43.737Z,51.051643
2023-06-23T10:21:43.700Z,51.051659
2023-06-23T10:22:44.717Z,51.051659
2023-06-23T10:23:43.694Z,51.051655
2023-06-23T10:24:43.677Z,51.051678
2023-06-23T10:25:44.748Z,51.051678
2023-06-23T10:26:43.702Z,51.051670
2023-06-23T10:27:43.702Z,51.051689
2023-06-23T10:28:43.671Z,51.051685
2023-06-23T10:29:44.869Z,51.051693
2023-06-23T10:30:43.640Z,51.051674
2023-06-23T10:31:43.677Z,51.051670
2023-06-23T10:32:44.053Z,51.051685
2023-06-23T10:33:43.624Z,51.051693
2023-06-23T10:34:43.610Z,51.051693
2023-06-23T10:35:43.683Z,51.051674
2023-06-23T10:36:43.692Z,51.051678
2023-06-23T10:37:45.831Z,51.051689
2023-06-23T10:38:44.643Z,51.051651
2023-06-23T10:39:43.593Z,51.051674
2023-06-23T10:40:43.571Z,51.051659
2023-06-23T10:41:43.560Z,51.051662
2023-06-23T10:42:43.550Z,51.051643
2023-06-23T10:43:43.582Z,51.051640
2023-06-23T10:44:43.557Z,51.051651
2023-06-23T10:45:43.566Z,51.051647
2023-06-23T10:46:43.521Z,51.051666
2023-06-23T10:47:43.525Z,51.051643
2023-06-23T10:48:43.551Z,51.051689
2023-06-23T10:49:43.512Z,51.051693
2023-06-23T10:50:45.602Z,51.051689
2023-06-23T10:51:43.511Z,51.051659
2023-06-23T10:52:43.696Z,51.051643
2023-06-23T10:53:43.516Z,51.051643
2023-06-23T10:54:43.465Z,51.051636
2023-06-23T10:56:02.394Z,51.051628
2023-06-23T10:56:45.499Z,51.051647
2023-06-23T10:57:43.462Z,51.051647
2023-06-23T10:58:43.474Z,51.051640
2023-06-23T10:59:43.435Z,51.051647
2023-06-23T11:00:43.429Z,51.051674
2023-06-23T11:01:43.503Z,51.051662
2023-06-23T11:02:43.587Z,51.051666
2023-06-23T11:03:43.427Z,51.051651
2023-06-23T11:04:43.471Z,51.051640
2023-06-23T11:05:43.429Z,51.051636
2023-06-23T11:06:43.375Z,51.051613
2023-06-23T11:07:43.388Z,51.051640
2023-06-23T11:08:43.378Z,51.051662
2023-06-23T11:09:43.356Z,51.051682
2023-06-23T11:10:43.354Z,51.051628
2023-06-23T11:11:43.356Z,51.051628
2023-06-23T11:12:43.349Z,51.051662
2023-06-23T11:13:43.509Z,51.051640
2023-06-23T11:14:44.321Z,51.051617
2023-06-23T11:15:43.312Z,51.051590
2023-06-23T11:16:43.328Z,51.051575
2023-06-23T11:17:43.367Z,51.051586
2023-06-23T11:18:43.288Z,51.051598
2023-06-23T11:19:43.285Z,51.051609
2023-06-23T11:20:43.276Z,51.051582
2023-06-23T11:21:43.316Z,51.051590
2023-06-23T11:22:43.260Z,51.051613
2023-06-23T11:23:43.262Z,51.051647
2023-06-23T11:24:43.279Z,51.051609